sensor_id;sensor_type;location;lat;lon;timestamp;P1;durP1;ratioP1;P2;durP2;ratioP2
69678;SDS011;56915;52.046;4.854;2022-11-15T00:00:55;57.42;;;17.77;;
69678;SDS011;56915;52.046;4.854;2022-11-15T00:03:25;75.07;;;19.25;;
69678;SDS011;56915;52.046;4.854;2022-11-15T00:05:53;74.57;;;18.25;;
69678;SDS011;56915;52.046;4.854;2022-11-15T00:08:20;68.40;;;18.73;;
69678;SDS011;56915;52.046;4.854;2022-11-15T00:10:54;78.80;;;19.00;;
69678;SDS011;56915;52.046;4.854;2022-11-15T00:13:21;84.55;;;19.60;;
69678;SDS011;56915;52.046;4.854;2022-11-15T00:15:48;71.22;;;17.83;;
69678;SDS011;56915;52.046;4.854;2022-11-15T00:18:15;63.90;;;17.38;;
69678;SDS011;56915;52.046;4.854;2022-11-15T00:20:43;61.50;;;17.00;;
69678;SDS011;56915;52.046;4.854;2022-11-15T00:23:10;56.83;;;16.67;;
69678;SDS011;56915;52.046;4.854;2022-11-15T00:25:37;63.58;;;17.17;;
69678;SDS011;56915;52.046;4.854;2022-11-15T00:28:03;66.05;;;17.10;;
69678;SDS011;56915;52.046;4.854;2022-11-15T00:30:30;80.35;;;17.23;;
69678;SDS011;56915;52.046;4.854;2022-11-15T00:33:01;72.50;;;17.50;;
69678;SDS011;56915;52.046;4.854;2022-11-15T00:35:30;74.22;;;16.60;;
69678;SDS011;56915;52.046;4.854;2022-11-15T00:37:59;68.15;;;16.35;;
69678;SDS011;56915;52.046;4.854;2022-11-15T00:40:27;58.83;;;16.52;;
69678;SDS011;56915;52.046;4.854;2022-11-15T00:42:54;67.97;;;15.85;;
69678;SDS011;56915;52.046;4.854;2022-11-15T00:45:21;68.83;;;17.33;;
69678;SDS011;56915;52.046;4.854;2022-11-15T00:47:48;58.50;;;16.13;;
69678;SDS011;56915;52.046;4.854;2022-11-15T00:50:14;72.65;;;17.10;;
69678;SDS011;56915;52.046;4.854;2022-11-15T00:52:41;75.32;;;16.73;;
69678;SDS011;56915;52.046;4.854;2022-11-15T00:55:18;61.83;;;16.63;;
69678;SDS011;56915;52.046;4.854;2022-11-15T00:57:47;71.20;;;16.40;;
69678;SDS011;56915;52.046;4.854;2022-11-15T01:00:14;73.97;;;16.13;;
69678;SDS011;56915;52.046;4.854;2022-11-15T01:02:41;84.28;;;17.50;;
69678;SDS011;56915;52.046;4.854;2022-11-15T01:05:08;62.78;;;16.30;;
69678;SDS011;56915;52.046;4.854;2022-11-15T01:07:35;70.30;;;16.73;;
69678;SDS011;56915;52.046;4.854;2022-11-15T01:10:02;84.27;;;17.33;;
69678;SDS011;56915;52.046;4.854;2022-11-15T01:12:29;75.43;;;16.73;;
69678;SDS011;56915;52.046;4.854;2022-11-15T01:14:56;70.53;;;16.80;;
69678;SDS011;56915;52.046;4.854;2022-11-15T01:17:23;78.95;;;17.20;;
69678;SDS011;56915;52.046;4.854;2022-11-15T01:19:50;81.80;;;16.88;;
69678;SDS011;56915;52.046;4.854;2022-11-15T01:22:17;93.20;;;18.10;;
69678;SDS011;56915;52.046;4.854;2022-11-15T01:24:43;82.15;;;17.90;;
69678;SDS011;56915;52.046;4.854;2022-11-15T01:27:10;71.38;;;16.92;;
69678;SDS011;56915;52.046;4.854;2022-11-15T01:29:37;83.47;;;18.05;;
69678;SDS011;56915;52.046;4.854;2022-11-15T01:32:03;66.03;;;16.67;;
69678;SDS011;56915;52.046;4.854;2022-11-15T01:34:30;67.93;;;17.03;;
69678;SDS011;56915;52.046;4.854;2022-11-15T01:36:57;67.40;;;17.25;;
69678;SDS011;56915;52.046;4.854;2022-11-15T01:39:24;81.43;;;18.25;;
69678;SDS011;56915;52.046;4.854;2022-11-15T01:41:52;59.03;;;16.83;;
69678;SDS011;56915;52.046;4.854;2022-11-15T01:47:20;75.50;;;17.77;;
69678;SDS011;56915;52.046;4.854;2022-11-15T01:52:26;90.45;;;18.35;;
69678;SDS011;56915;52.046;4.854;2022-11-15T01:55:02;73.40;;;18.02;;
69678;SDS011;56915;52.046;4.854;2022-11-15T01:57:39;72.65;;;17.50;;
69678;SDS011;56915;52.046;4.854;2022-11-15T02:00:09;74.70;;;19.23;;
69678;SDS011;56915;52.046;4.854;2022-11-15T02:02:36;73.97;;;18.63;;
69678;SDS011;56915;52.046;4.854;2022-11-15T02:05:04;76.32;;;18.35;;
69678;SDS011;56915;52.046;4.854;2022-11-15T02:07:32;66.05;;;19.10;;
69678;SDS011;56915;52.046;4.854;2022-11-15T02:10:13;72.70;;;18.50;;
69678;SDS011;56915;52.046;4.854;2022-11-15T02:12:44;74.00;;;19.83;;
69678;SDS011;56915;52.046;4.854;2022-11-15T02:15:12;80.97;;;19.67;;
69678;SDS011;56915;52.046;4.854;2022-11-15T02:17:46;81.18;;;20.60;;
69678;SDS011;56915;52.046;4.854;2022-11-15T02:23:22;72.43;;;20.40;;
69678;SDS011;56915;52.046;4.854;2022-11-15T02:29:03;69.43;;;19.33;;
69678;SDS011;56915;52.046;4.854;2022-11-15T02:42:39;75.55;;;20.10;;
69678;SDS011;56915;52.046;4.854;2022-11-15T02:45:35;73.65;;;18.55;;
69678;SDS011;56915;52.046;4.854;2022-11-15T02:48:06;78.47;;;19.85;;
69678;SDS011;56915;52.046;4.854;2022-11-15T02:50:35;77.45;;;19.70;;
69678;SDS011;56915;52.046;4.854;2022-11-15T02:53:02;106.60;;;20.03;;
69678;SDS011;56915;52.046;4.854;2022-11-15T02:55:33;73.25;;;18.55;;
69678;SDS011;56915;52.046;4.854;2022-11-15T03:06:52;85.57;;;19.53;;
69678;SDS011;56915;52.046;4.854;2022-11-15T03:09:54;73.03;;;20.58;;
69678;SDS011;56915;52.046;4.854;2022-11-15T03:12:57;73.07;;;20.98;;
69678;SDS011;56915;52.046;4.854;2022-11-15T03:15:34;67.20;;;19.23;;
69678;SDS011;56915;52.046;4.854;2022-11-15T03:18:10;68.50;;;20.13;;
69678;SDS011;56915;52.046;4.854;2022-11-15T03:21:04;71.27;;;20.50;;
69678;SDS011;56915;52.046;4.854;2022-11-15T03:23:33;59.03;;;18.85;;
69678;SDS011;56915;52.046;4.854;2022-11-15T03:26:05;65.07;;;20.45;;
69678;SDS011;56915;52.046;4.854;2022-11-15T03:31:22;67.43;;;20.45;;
69678;SDS011;56915;52.046;4.854;2022-11-15T03:37:01;65.28;;;19.77;;
69678;SDS011;56915;52.046;4.854;2022-11-15T03:39:28;61.05;;;19.42;;
69678;SDS011;56915;52.046;4.854;2022-11-15T03:42:11;59.28;;;19.95;;
69678;SDS011;56915;52.046;4.854;2022-11-15T03:44:54;56.33;;;19.65;;
69678;SDS011;56915;52.046;4.854;2022-11-15T03:47:34;52.77;;;17.83;;
69678;SDS011;56915;52.046;4.854;2022-11-15T03:50:09;56.63;;;18.13;;
69678;SDS011;56915;52.046;4.854;2022-11-15T03:52:40;52.58;;;18.63;;
69678;SDS011;56915;52.046;4.854;2022-11-15T03:55:10;58.50;;;18.85;;
69678;SDS011;56915;52.046;4.854;2022-11-15T03:57:38;51.10;;;18.08;;
69678;SDS011;56915;52.046;4.854;2022-11-15T04:00:05;50.57;;;18.13;;
69678;SDS011;56915;52.046;4.854;2022-11-15T04:02:33;53.78;;;18.23;;
69678;SDS011;56915;52.046;4.854;2022-11-15T04:05:00;47.35;;;17.63;;
69678;SDS011;56915;52.046;4.854;2022-11-15T04:07:26;53.08;;;18.67;;
69678;SDS011;56915;52.046;4.854;2022-11-15T04:09:53;45.83;;;18.20;;
69678;SDS011;56915;52.046;4.854;2022-11-15T04:12:30;46.77;;;17.77;;
69678;SDS011;56915;52.046;4.854;2022-11-15T04:23:06;42.10;;;17.08;;
69678;SDS011;56915;52.046;4.854;2022-11-15T04:26:01;44.53;;;17.30;;
69678;SDS011;56915;52.046;4.854;2022-11-15T04:28:29;41.35;;;16.35;;
69678;SDS011;56915;52.046;4.854;2022-11-15T04:30:56;42.20;;;17.02;;
69678;SDS011;56915;52.046;4.854;2022-11-15T04:33:23;44.42;;;16.95;;
69678;SDS011;56915;52.046;4.854;2022-11-15T04:35:50;44.15;;;16.20;;
69678;SDS011;56915;52.046;4.854;2022-11-15T04:38:36;37.57;;;15.10;;
69678;SDS011;56915;52.046;4.854;2022-11-15T04:41:03;40.83;;;16.02;;
69678;SDS011;56915;52.046;4.854;2022-11-15T04:43:29;36.47;;;15.55;;
69678;SDS011;56915;52.046;4.854;2022-11-15T04:45:57;33.97;;;15.15;;
69678;SDS011;56915;52.046;4.854;2022-11-15T04:48:24;38.15;;;15.45;;
69678;SDS011;56915;52.046;4.854;2022-11-15T04:50:50;34.20;;;14.37;;
69678;SDS011;56915;52.046;4.854;2022-11-15T04:53:17;35.53;;;15.13;;
69678;SDS011;56915;52.046;4.854;2022-11-15T04:55:45;36.83;;;14.90;;
69678;SDS011;56915;52.046;4.854;2022-11-15T04:58:12;36.85;;;14.45;;
69678;SDS011;56915;52.046;4.854;2022-11-15T05:00:39;33.97;;;14.57;;
69678;SDS011;56915;52.046;4.854;2022-11-15T05:03:06;34.33;;;14.47;;
69678;SDS011;56915;52.046;4.854;2022-11-15T05:05:53;34.65;;;13.90;;
69678;SDS011;56915;52.046;4.854;2022-11-15T05:08:19;37.85;;;13.98;;
69678;SDS011;56915;52.046;4.854;2022-11-15T05:10:47;33.22;;;14.93;;
69678;SDS011;56915;52.046;4.854;2022-11-15T05:13:13;33.25;;;13.93;;
69678;SDS011;56915;52.046;4.854;2022-11-15T05:15:40;32.13;;;14.40;;
69678;SDS011;56915;52.046;4.854;2022-11-15T05:18:07;29.40;;;13.60;;
69678;SDS011;56915;52.046;4.854;2022-11-15T05:20:34;34.75;;;13.90;;
69678;SDS011;56915;52.046;4.854;2022-11-15T05:23:01;32.42;;;13.73;;
69678;SDS011;56915;52.046;4.854;2022-11-15T05:25:28;31.40;;;13.90;;
69678;SDS011;56915;52.046;4.854;2022-11-15T05:27:54;32.70;;;13.80;;
69678;SDS011;56915;52.046;4.854;2022-11-15T05:30:21;36.70;;;13.85;;
69678;SDS011;56915;52.046;4.854;2022-11-15T05:32:48;38.10;;;14.05;;
69678;SDS011;56915;52.046;4.854;2022-11-15T05:35:21;32.45;;;14.05;;
69678;SDS011;56915;52.046;4.854;2022-11-15T05:38:04;30.55;;;13.38;;
69678;SDS011;56915;52.046;4.854;2022-11-15T05:40:31;37.90;;;14.90;;
69678;SDS011;56915;52.046;4.854;2022-11-15T05:42:59;41.90;;;15.32;;
69678;SDS011;56915;52.046;4.854;2022-11-15T05:45:29;36.53;;;14.50;;
69678;SDS011;56915;52.046;4.854;2022-11-15T05:47:57;38.33;;;15.30;;
69678;SDS011;56915;52.046;4.854;2022-11-15T05:50:27;33.72;;;13.75;;
69678;SDS011;56915;52.046;4.854;2022-11-15T05:52:54;38.20;;;14.63;;
69678;SDS011;56915;52.046;4.854;2022-11-15T05:55:27;33.97;;;14.10;;
69678;SDS011;56915;52.046;4.854;2022-11-15T05:57:54;37.15;;;14.27;;
69678;SDS011;56915;52.046;4.854;2022-11-15T06:00:21;33.38;;;13.75;;
69678;SDS011;56915;52.046;4.854;2022-11-15T06:02:48;34.88;;;13.00;;
69678;SDS011;56915;52.046;4.854;2022-11-15T06:05:15;36.30;;;13.67;;
69678;SDS011;56915;52.046;4.854;2022-11-15T06:07:41;33.70;;;13.75;;
69678;SDS011;56915;52.046;4.854;2022-11-15T06:10:10;35.67;;;13.70;;
69678;SDS011;56915;52.046;4.854;2022-11-15T06:12:37;38.17;;;13.07;;
69678;SDS011;56915;52.046;4.854;2022-11-15T06:15:04;31.10;;;13.05;;
69678;SDS011;56915;52.046;4.854;2022-11-15T06:17:31;34.53;;;13.43;;
69678;SDS011;56915;52.046;4.854;2022-11-15T06:19:58;27.33;;;12.55;;
69678;SDS011;56915;52.046;4.854;2022-11-15T06:22:24;29.40;;;12.48;;
69678;SDS011;56915;52.046;4.854;2022-11-15T06:24:51;30.83;;;12.52;;
69678;SDS011;56915;52.046;4.854;2022-11-15T06:27:18;27.67;;;12.30;;
69678;SDS011;56915;52.046;4.854;2022-11-15T06:29:44;27.37;;;12.00;;
69678;SDS011;56915;52.046;4.854;2022-11-15T06:32:11;29.48;;;12.02;;
69678;SDS011;56915;52.046;4.854;2022-11-15T06:34:38;27.02;;;11.48;;
69678;SDS011;56915;52.046;4.854;2022-11-15T06:37:13;31.55;;;13.13;;
69678;SDS011;56915;52.046;4.854;2022-11-15T06:39:40;28.70;;;12.00;;
69678;SDS011;56915;52.046;4.854;2022-11-15T06:42:10;30.57;;;12.20;;
69678;SDS011;56915;52.046;4.854;2022-11-15T06:44:37;29.83;;;12.20;;
69678;SDS011;56915;52.046;4.854;2022-11-15T06:47:04;28.45;;;11.68;;
69678;SDS011;56915;52.046;4.854;2022-11-15T06:49:30;28.02;;;11.18;;
69678;SDS011;56915;52.046;4.854;2022-11-15T06:51:57;29.95;;;12.15;;
69678;SDS011;56915;52.046;4.854;2022-11-15T06:54:24;28.20;;;11.67;;
69678;SDS011;56915;52.046;4.854;2022-11-15T06:56:50;27.67;;;11.50;;
69678;SDS011;56915;52.046;4.854;2022-11-15T06:59:17;29.58;;;12.07;;
69678;SDS011;56915;52.046;4.854;2022-11-15T07:01:44;32.08;;;11.57;;
69678;SDS011;56915;52.046;4.854;2022-11-15T07:04:11;26.88;;;11.27;;
69678;SDS011;56915;52.046;4.854;2022-11-15T07:06:37;31.17;;;12.07;;
69678;SDS011;56915;52.046;4.854;2022-11-15T07:09:04;27.38;;;11.55;;
69678;SDS011;56915;52.046;4.854;2022-11-15T07:11:32;28.23;;;11.55;;
69678;SDS011;56915;52.046;4.854;2022-11-15T07:13:59;24.80;;;11.10;;
69678;SDS011;56915;52.046;4.854;2022-11-15T07:16:26;28.92;;;11.15;;
69678;SDS011;56915;52.046;4.854;2022-11-15T07:18:53;30.93;;;11.70;;
69678;SDS011;56915;52.046;4.854;2022-11-15T07:21:19;30.10;;;11.43;;
69678;SDS011;56915;52.046;4.854;2022-11-15T07:23:53;24.42;;;10.70;;
69678;SDS011;56915;52.046;4.854;2022-11-15T07:26:20;26.88;;;10.05;;
69678;SDS011;56915;52.046;4.854;2022-11-15T07:28:47;26.83;;;10.80;;
69678;SDS011;56915;52.046;4.854;2022-11-15T07:31:14;22.40;;;10.37;;
69678;SDS011;56915;52.046;4.854;2022-11-15T07:33:41;22.13;;;10.13;;
69678;SDS011;56915;52.046;4.854;2022-11-15T07:36:08;28.10;;;10.35;;
69678;SDS011;56915;52.046;4.854;2022-11-15T07:38:35;23.35;;;10.32;;
69678;SDS011;56915;52.046;4.854;2022-11-15T07:41:08;27.67;;;10.43;;
69678;SDS011;56915;52.046;4.854;2022-11-15T07:43:35;21.30;;;10.17;;
69678;SDS011;56915;52.046;4.854;2022-11-15T07:46:06;23.70;;;10.27;;
69678;SDS011;56915;52.046;4.854;2022-11-15T07:48:35;23.65;;;10.68;;
69678;SDS011;56915;52.046;4.854;2022-11-15T07:51:11;25.73;;;10.57;;
69678;SDS011;56915;52.046;4.854;2022-11-15T07:53:40;24.20;;;10.43;;
69678;SDS011;56915;52.046;4.854;2022-11-15T07:56:07;26.60;;;10.63;;
69678;SDS011;56915;52.046;4.854;2022-11-15T07:58:34;21.77;;;9.80;;
69678;SDS011;56915;52.046;4.854;2022-11-15T08:01:05;26.67;;;10.07;;
69678;SDS011;56915;52.046;4.854;2022-11-15T08:03:33;24.10;;;9.55;;
69678;SDS011;56915;52.046;4.854;2022-11-15T08:06:00;18.45;;;9.05;;
69678;SDS011;56915;52.046;4.854;2022-11-15T08:08:27;22.33;;;9.07;;
69678;SDS011;56915;52.046;4.854;2022-11-15T08:10:54;22.05;;;9.13;;
69678;SDS011;56915;52.046;4.854;2022-11-15T08:13:21;20.08;;;9.05;;
69678;SDS011;56915;52.046;4.854;2022-11-15T08:15:47;16.55;;;7.97;;
69678;SDS011;56915;52.046;4.854;2022-11-15T08:18:22;19.33;;;8.32;;
69678;SDS011;56915;52.046;4.854;2022-11-15T08:20:49;18.00;;;7.87;;
69678;SDS011;56915;52.046;4.854;2022-11-15T08:23:15;18.25;;;7.65;;
69678;SDS011;56915;52.046;4.854;2022-11-15T08:25:42;17.02;;;7.70;;
69678;SDS011;56915;52.046;4.854;2022-11-15T08:28:09;17.17;;;7.53;;
69678;SDS011;56915;52.046;4.854;2022-11-15T08:30:38;15.00;;;7.00;;
69678;SDS011;56915;52.046;4.854;2022-11-15T08:33:12;17.83;;;7.50;;
69678;SDS011;56915;52.046;4.854;2022-11-15T08:35:40;17.77;;;7.43;;
69678;SDS011;56915;52.046;4.854;2022-11-15T08:38:08;15.02;;;7.60;;
69678;SDS011;56915;52.046;4.854;2022-11-15T08:40:36;16.05;;;7.50;;
69678;SDS011;56915;52.046;4.854;2022-11-15T08:43:03;15.40;;;7.18;;
69678;SDS011;56915;52.046;4.854;2022-11-15T08:45:30;13.80;;;6.63;;
69678;SDS011;56915;52.046;4.854;2022-11-15T08:47:57;14.27;;;6.32;;
69678;SDS011;56915;52.046;4.854;2022-11-15T08:50:26;12.65;;;5.97;;
69678;SDS011;56915;52.046;4.854;2022-11-15T08:52:53;15.13;;;6.90;;
69678;SDS011;56915;52.046;4.854;2022-11-15T08:55:24;15.85;;;7.30;;
69678;SDS011;56915;52.046;4.854;2022-11-15T08:57:50;18.13;;;7.53;;
69678;SDS011;56915;52.046;4.854;2022-11-15T09:00:17;14.05;;;6.80;;
69678;SDS011;56915;52.046;4.854;2022-11-15T09:02:46;16.42;;;6.10;;
69678;SDS011;56915;52.046;4.854;2022-11-15T09:05:12;13.25;;;6.18;;
69678;SDS011;56915;52.046;4.854;2022-11-15T09:07:41;13.00;;;5.93;;
69678;SDS011;56915;52.046;4.854;2022-11-15T09:10:08;12.73;;;6.10;;
69678;SDS011;56915;52.046;4.854;2022-11-15T09:12:35;12.95;;;5.88;;
69678;SDS011;56915;52.046;4.854;2022-11-15T09:15:02;14.88;;;6.57;;
69678;SDS011;56915;52.046;4.854;2022-11-15T09:17:30;12.70;;;5.88;;
69678;SDS011;56915;52.046;4.854;2022-11-15T09:19:57;12.88;;;6.28;;
69678;SDS011;56915;52.046;4.854;2022-11-15T09:22:24;15.73;;;6.67;;
69678;SDS011;56915;52.046;4.854;2022-11-15T09:24:51;17.75;;;6.40;;
69678;SDS011;56915;52.046;4.854;2022-11-15T09:27:18;17.45;;;6.30;;
69678;SDS011;56915;52.046;4.854;2022-11-15T09:29:45;11.70;;;5.72;;
69678;SDS011;56915;52.046;4.854;2022-11-15T09:32:12;13.70;;;6.20;;
69678;SDS011;56915;52.046;4.854;2022-11-15T09:34:39;13.37;;;5.57;;
69678;SDS011;56915;52.046;4.854;2022-11-15T09:37:06;12.38;;;5.82;;
69678;SDS011;56915;52.046;4.854;2022-11-15T09:39:33;12.35;;;5.50;;
69678;SDS011;56915;52.046;4.854;2022-11-15T09:44:48;10.45;;;5.18;;
69678;SDS011;56915;52.046;4.854;2022-11-15T09:50:01;10.10;;;5.00;;
69678;SDS011;56915;52.046;4.854;2022-11-15T09:52:34;9.68;;;4.60;;
69678;SDS011;56915;52.046;4.854;2022-11-15T09:55:04;11.07;;;4.50;;
69678;SDS011;56915;52.046;4.854;2022-11-15T10:00:29;9.97;;;4.53;;
69678;SDS011;56915;52.046;4.854;2022-11-15T10:03:23;7.75;;;4.43;;
69678;SDS011;56915;52.046;4.854;2022-11-15T10:05:52;10.77;;;4.70;;
69678;SDS011;56915;52.046;4.854;2022-11-15T10:08:31;10.05;;;4.63;;
69678;SDS011;56915;52.046;4.854;2022-11-15T10:11:14;8.40;;;4.50;;
69678;SDS011;56915;52.046;4.854;2022-11-15T10:14:05;9.37;;;4.07;;
69678;SDS011;56915;52.046;4.854;2022-11-15T10:19:42;7.10;;;4.35;;
69678;SDS011;56915;52.046;4.854;2022-11-15T10:22:51;8.55;;;4.03;;
69678;SDS011;56915;52.046;4.854;2022-11-15T10:25:22;8.90;;;3.75;;
69678;SDS011;56915;52.046;4.854;2022-11-15T10:31:02;8.65;;;3.35;;
69678;SDS011;56915;52.046;4.854;2022-11-15T10:33:34;10.23;;;3.42;;
69678;SDS011;56915;52.046;4.854;2022-11-15T10:41:31;6.83;;;2.43;;
69678;SDS011;56915;52.046;4.854;2022-11-15T10:44:02;6.45;;;2.90;;
69678;SDS011;56915;52.046;4.854;2022-11-15T10:46:33;6.65;;;3.30;;
69678;SDS011;56915;52.046;4.854;2022-11-15T10:51:55;7.70;;;3.00;;
69678;SDS011;56915;52.046;4.854;2022-11-15T10:54:46;11.10;;;2.90;;
69678;SDS011;56915;52.046;4.854;2022-11-15T10:57:27;8.05;;;2.80;;
69678;SDS011;56915;52.046;4.854;2022-11-15T11:02:33;6.70;;;2.60;;
69678;SDS011;56915;52.046;4.854;2022-11-15T11:07:59;7.07;;;2.93;;
69678;SDS011;56915;52.046;4.854;2022-11-15T11:10:28;7.53;;;3.20;;
69678;SDS011;56915;52.046;4.854;2022-11-15T11:13:23;6.55;;;2.40;;
69678;SDS011;56915;52.046;4.854;2022-11-15T11:27:43;6.13;;;2.40;;
69678;SDS011;56915;52.046;4.854;2022-11-15T11:32:57;10.77;;;2.85;;
69678;SDS011;56915;52.046;4.854;2022-11-15T11:43:40;5.38;;;2.28;;
69678;SDS011;56915;52.046;4.854;2022-11-15T11:46:34;5.43;;;1.80;;
69678;SDS011;56915;52.046;4.854;2022-11-15T11:49:47;6.03;;;2.10;;
69678;SDS011;56915;52.046;4.854;2022-11-15T11:52:22;4.35;;;1.80;;
69678;SDS011;56915;52.046;4.854;2022-11-15T11:55:05;4.97;;;2.08;;
69678;SDS011;56915;52.046;4.854;2022-11-15T11:57:56;7.55;;;1.70;;
69678;SDS011;56915;52.046;4.854;2022-11-15T12:00:46;4.60;;;1.70;;
69678;SDS011;56915;52.046;4.854;2022-11-15T12:06:00;4.28;;;1.40;;
69678;SDS011;56915;52.046;4.854;2022-11-15T12:08:43;3.03;;;1.33;;
69678;SDS011;56915;52.046;4.854;2022-11-15T12:11:17;9.23;;;1.40;;
69678;SDS011;56915;52.046;4.854;2022-11-15T12:13:50;4.60;;;1.50;;
69678;SDS011;56915;52.046;4.854;2022-11-15T12:16:26;3.87;;;1.20;;
69678;SDS011;56915;52.046;4.854;2022-11-15T12:18:56;7.30;;;1.25;;
69678;SDS011;56915;52.046;4.854;2022-11-15T12:24:19;4.53;;;1.13;;
69678;SDS011;56915;52.046;4.854;2022-11-15T12:27:15;4.10;;;1.00;;
69678;SDS011;56915;52.046;4.854;2022-11-15T12:30:00;5.37;;;1.27;;
69678;SDS011;56915;52.046;4.854;2022-11-15T12:32:40;5.25;;;1.00;;
69678;SDS011;56915;52.046;4.854;2022-11-15T12:35:42;7.75;;;1.27;;
69678;SDS011;56915;52.046;4.854;2022-11-15T12:38:09;6.07;;;0.95;;
69678;SDS011;56915;52.046;4.854;2022-11-15T12:40:38;3.42;;;0.85;;
69678;SDS011;56915;52.046;4.854;2022-11-15T12:46:08;3.45;;;0.70;;
69678;SDS011;56915;52.046;4.854;2022-11-15T13:02:18;3.03;;;0.82;;
69678;SDS011;56915;52.046;4.854;2022-11-15T13:04:47;5.28;;;0.70;;
69678;SDS011;56915;52.046;4.854;2022-11-15T13:10:07;3.60;;;0.90;;
69678;SDS011;56915;52.046;4.854;2022-11-15T13:12:55;4.13;;;0.80;;
69678;SDS011;56915;52.046;4.854;2022-11-15T13:21:01;5.28;;;0.77;;
69678;SDS011;56915;52.046;4.854;2022-11-15T13:23:53;3.87;;;1.00;;
69678;SDS011;56915;52.046;4.854;2022-11-15T13:26:21;2.95;;;0.80;;
69678;SDS011;56915;52.046;4.854;2022-11-15T13:28:49;5.85;;;0.80;;
69678;SDS011;56915;52.046;4.854;2022-11-15T13:31:25;8.45;;;1.05;;
69678;SDS011;56915;52.046;4.854;2022-11-15T13:34:13;5.82;;;0.88;;
69678;SDS011;56915;52.046;4.854;2022-11-15T13:39:47;3.78;;;1.15;;
69678;SDS011;56915;52.046;4.854;2022-11-15T13:42:16;6.00;;;0.90;;
69678;SDS011;56915;52.046;4.854;2022-11-15T13:45:01;3.58;;;0.90;;
69678;SDS011;56915;52.046;4.854;2022-11-15T13:47:30;4.28;;;1.00;;
69678;SDS011;56915;52.046;4.854;2022-11-15T13:49:58;4.00;;;0.90;;
69678;SDS011;56915;52.046;4.854;2022-11-15T13:52:28;3.95;;;0.80;;
69678;SDS011;56915;52.046;4.854;2022-11-15T13:55:01;2.88;;;0.80;;
69678;SDS011;56915;52.046;4.854;2022-11-15T13:57:41;3.47;;;0.93;;
69678;SDS011;56915;52.046;4.854;2022-11-15T14:00:29;4.25;;;1.05;;
69678;SDS011;56915;52.046;4.854;2022-11-15T14:03:12;4.57;;;0.80;;
69678;SDS011;56915;52.046;4.854;2022-11-15T14:05:41;3.05;;;0.70;;
69678;SDS011;56915;52.046;4.854;2022-11-15T14:08:21;6.25;;;0.80;;
69678;SDS011;56915;52.046;4.854;2022-11-15T14:11:05;8.75;;;1.00;;
69678;SDS011;56915;52.046;4.854;2022-11-15T14:13:34;3.97;;;0.70;;
69678;SDS011;56915;52.046;4.854;2022-11-15T14:16:18;5.90;;;0.80;;
69678;SDS011;56915;52.046;4.854;2022-11-15T14:18:47;1.25;;;0.60;;
69678;SDS011;56915;52.046;4.854;2022-11-15T14:21:19;6.95;;;1.00;;
69678;SDS011;56915;52.046;4.854;2022-11-15T14:23:46;3.38;;;0.57;;
69678;SDS011;56915;52.046;4.854;2022-11-15T14:26:32;4.55;;;0.88;;
69678;SDS011;56915;52.046;4.854;2022-11-15T14:31:53;5.78;;;0.98;;
69678;SDS011;56915;52.046;4.854;2022-11-15T14:34:37;4.93;;;0.80;;
69678;SDS011;56915;52.046;4.854;2022-11-15T14:37:04;5.05;;;0.80;;
69678;SDS011;56915;52.046;4.854;2022-11-15T14:39:31;2.60;;;0.70;;
69678;SDS011;56915;52.046;4.854;2022-11-15T14:41:57;4.63;;;0.70;;
69678;SDS011;56915;52.046;4.854;2022-11-15T14:44:24;5.20;;;0.80;;
69678;SDS011;56915;52.046;4.854;2022-11-15T14:46:51;3.70;;;0.85;;
69678;SDS011;56915;52.046;4.854;2022-11-15T14:49:17;3.40;;;1.02;;
69678;SDS011;56915;52.046;4.854;2022-11-15T14:51:44;4.07;;;0.90;;
69678;SDS011;56915;52.046;4.854;2022-11-15T14:54:11;4.60;;;0.70;;
69678;SDS011;56915;52.046;4.854;2022-11-15T14:56:37;2.85;;;0.60;;
69678;SDS011;56915;52.046;4.854;2022-11-15T14:59:04;6.20;;;0.80;;
69678;SDS011;56915;52.046;4.854;2022-11-15T15:01:31;2.70;;;0.90;;
69678;SDS011;56915;52.046;4.854;2022-11-15T15:03:58;4.38;;;0.90;;
69678;SDS011;56915;52.046;4.854;2022-11-15T15:06:25;1.90;;;0.60;;
69678;SDS011;56915;52.046;4.854;2022-11-15T15:08:52;5.60;;;1.00;;
69678;SDS011;56915;52.046;4.854;2022-11-15T15:13:51;4.55;;;0.90;;
69678;SDS011;56915;52.046;4.854;2022-11-15T15:16:19;5.55;;;0.90;;
69678;SDS011;56915;52.046;4.854;2022-11-15T15:18:45;4.27;;;1.10;;
69678;SDS011;56915;52.046;4.854;2022-11-15T15:21:22;3.17;;;0.90;;
69678;SDS011;56915;52.046;4.854;2022-11-15T15:23:51;4.45;;;1.00;;
69678;SDS011;56915;52.046;4.854;2022-11-15T15:26:20;2.80;;;0.70;;
69678;SDS011;56915;52.046;4.854;2022-11-15T15:28:48;4.43;;;1.00;;
69678;SDS011;56915;52.046;4.854;2022-11-15T15:31:17;3.40;;;0.90;;
69678;SDS011;56915;52.046;4.854;2022-11-15T15:33:44;1.80;;;0.80;;
69678;SDS011;56915;52.046;4.854;2022-11-15T15:36:11;3.55;;;0.80;;
69678;SDS011;56915;52.046;4.854;2022-11-15T15:38:39;6.03;;;0.93;;
69678;SDS011;56915;52.046;4.854;2022-11-15T15:43:43;5.10;;;0.97;;
69678;SDS011;56915;52.046;4.854;2022-11-15T15:46:14;5.30;;;1.00;;
69678;SDS011;56915;52.046;4.854;2022-11-15T15:48:42;5.63;;;1.05;;
69678;SDS011;56915;52.046;4.854;2022-11-15T15:51:09;3.80;;;1.10;;
69678;SDS011;56915;52.046;4.854;2022-11-15T15:53:45;5.10;;;1.10;;
69678;SDS011;56915;52.046;4.854;2022-11-15T15:56:12;2.73;;;0.90;;
69678;SDS011;56915;52.046;4.854;2022-11-15T16:01:08;5.65;;;1.08;;
69678;SDS011;56915;52.046;4.854;2022-11-15T16:03:35;2.95;;;0.90;;
69678;SDS011;56915;52.046;4.854;2022-11-15T16:06:02;4.82;;;1.30;;
69678;SDS011;56915;52.046;4.854;2022-11-15T16:08:30;3.43;;;1.13;;
69678;SDS011;56915;52.046;4.854;2022-11-15T16:11:13;4.13;;;1.00;;
69678;SDS011;56915;52.046;4.854;2022-11-15T16:13:40;4.70;;;1.10;;
69678;SDS011;56915;52.046;4.854;2022-11-15T16:16:07;3.45;;;1.10;;
69678;SDS011;56915;52.046;4.854;2022-11-15T16:18:38;4.78;;;1.10;;
69678;SDS011;56915;52.046;4.854;2022-11-15T16:21:05;4.23;;;1.10;;
69678;SDS011;56915;52.046;4.854;2022-11-15T16:23:33;3.58;;;1.00;;
69678;SDS011;56915;52.046;4.854;2022-11-15T16:26:00;3.88;;;1.67;;
69678;SDS011;56915;52.046;4.854;2022-11-15T16:28:29;4.13;;;1.40;;
69678;SDS011;56915;52.046;4.854;2022-11-15T16:30:59;5.47;;;1.30;;
69678;SDS011;56915;52.046;4.854;2022-11-15T16:33:26;3.60;;;1.40;;
69678;SDS011;56915;52.046;4.854;2022-11-15T16:35:52;3.95;;;1.40;;
69678;SDS011;56915;52.046;4.854;2022-11-15T16:38:19;5.07;;;1.60;;
69678;SDS011;56915;52.046;4.854;2022-11-15T16:40:46;6.60;;;1.60;;
69678;SDS011;56915;52.046;4.854;2022-11-15T16:43:13;7.32;;;1.83;;
69678;SDS011;56915;52.046;4.854;2022-11-15T16:45:40;5.20;;;2.00;;
69678;SDS011;56915;52.046;4.854;2022-11-15T16:48:07;4.65;;;1.70;;
69678;SDS011;56915;52.046;4.854;2022-11-15T16:50:55;3.40;;;1.55;;
69678;SDS011;56915;52.046;4.854;2022-11-15T16:53:23;6.53;;;1.80;;
69678;SDS011;56915;52.046;4.854;2022-11-15T16:55:51;8.23;;;2.17;;
69678;SDS011;56915;52.046;4.854;2022-11-15T16:58:18;4.03;;;1.80;;
69678;SDS011;56915;52.046;4.854;2022-11-15T17:00:44;3.53;;;1.70;;
69678;SDS011;56915;52.046;4.854;2022-11-15T17:03:15;5.60;;;2.00;;
69678;SDS011;56915;52.046;4.854;2022-11-15T17:05:42;5.40;;;2.15;;
69678;SDS011;56915;52.046;4.854;2022-11-15T17:08:09;4.85;;;2.05;;
69678;SDS011;56915;52.046;4.854;2022-11-15T17:10:37;6.07;;;1.90;;
69678;SDS011;56915;52.046;4.854;2022-11-15T17:15:39;4.43;;;1.83;;
69678;SDS011;56915;52.046;4.854;2022-11-15T17:18:05;5.90;;;2.08;;